createdAt,value
2023-02-04T00:03:38.006Z,9.85
2023-02-04T00:11:45.994Z,11.48
2023-02-04T00:19:51.488Z,13.15
2023-02-04T00:27:59.654Z,16.48
2023-02-04T00:36:05.287Z,15.43
2023-02-04T00:44:14.142Z,17.85
2023-02-04T00:52:19.676Z,19.98
2023-02-04T01:00:29.027Z,20.50
2023-02-04T01:08:34.671Z,19.92
2023-02-04T01:16:42.983Z,20.65
2023-02-04T01:24:49.193Z,21.02
2023-02-04T01:33:15.750Z,19.42
2023-02-04T01:41:21.806Z,19.73
2023-02-04T01:49:30.215Z,23.40
2023-02-04T01:57:36.967Z,19.23
2023-02-04T02:05:47.869Z,19.15
2023-02-04T02:13:53.387Z,20.58
2023-02-04T02:22:05.526Z,23.30
2023-02-04T02:30:17.906Z,21.98
2023-02-04T02:38:23.605Z,22.13
2023-02-04T02:46:31.912Z,23.48
2023-02-04T02:54:37.470Z,25.17
2023-02-04T03:02:47.015Z,25.17
2023-02-04T03:10:52.899Z,24.55
2023-02-04T03:19:01.421Z,23.05
2023-02-04T03:27:07.238Z,24.10
2023-02-04T03:35:15.822Z,21.20
2023-02-04T03:43:21.334Z,27.58
2023-02-04T03:51:29.263Z,28.88
2023-02-04T03:59:34.609Z,33.10
2023-02-04T04:07:42.926Z,42.00
2023-02-04T04:15:48.291Z,31.85
2023-02-04T04:23:56.277Z,33.92
2023-02-04T04:32:01.714Z,34.53
2023-02-04T04:40:10.600Z,26.40
2023-02-04T04:48:15.984Z,26.80
2023-02-04T04:56:24.067Z,18.85
2023-02-04T05:04:29.605Z,18.80
2023-02-04T05:12:37.857Z,17.95
2023-02-04T05:20:43.211Z,14.75
2023-02-04T05:28:51.267Z,9.80
2023-02-04T05:36:56.810Z,3.22
2023-02-04T05:45:04.914Z,2.42
2023-02-04T05:53:10.360Z,3.30
2023-02-04T06:01:18.303Z,4.47
2023-02-04T06:09:23.707Z,3.38
2023-02-04T06:17:31.850Z,4.30
2023-02-04T06:25:37.444Z,3.78
2023-02-04T06:33:45.525Z,5.32
2023-02-04T06:41:50.895Z,4.90
2023-02-04T06:49:58.916Z,7.05
2023-02-04T06:58:04.385Z,5.40
2023-02-04T07:06:12.391Z,6.57
2023-02-04T07:14:18.870Z,10.68
2023-02-04T07:22:26.953Z,5.05
2023-02-04T07:30:33.086Z,5.82
2023-02-04T07:38:41.378Z,5.93
2023-02-04T07:46:46.878Z,6.80
2023-02-04T07:54:55.230Z,10.00
2023-02-04T08:03:00.789Z,5.50
2023-02-04T08:11:09.146Z,5.22
2023-02-04T08:19:19.226Z,7.85
2023-02-04T08:27:27.312Z,6.00
2023-02-04T08:35:33.021Z,7.78
2023-02-04T08:43:45.794Z,9.05
2023-02-04T08:51:51.239Z,7.97
2023-02-04T08:59:59.319Z,9.43
2023-02-04T09:08:05.001Z,9.00
2023-02-04T09:16:21.394Z,7.20
2023-02-04T09:24:27.072Z,13.27
2023-02-04T09:32:35.338Z,21.02
2023-02-04T09:40:44.885Z,21.55
2023-02-04T09:48:53.610Z,15.90
2023-02-04T09:57:00.225Z,22.08
2023-02-04T10:05:09.736Z,26.33
2023-02-04T10:13:21.301Z,21.25
2023-02-04T10:30:35.889Z,20.40
2023-02-04T10:38:41.611Z,20.45
2023-02-04T10:46:50.234Z,14.18
2023-02-04T10:54:55.843Z,14.02
2023-02-04T11:03:08.336Z,13.10
2023-02-04T11:11:20.098Z,10.88
2023-02-04T11:19:40.051Z,13.10
2023-02-04T11:27:47.430Z,16.25
2023-02-04T11:36:04.932Z,14.07
2023-02-04T11:44:12.571Z,11.90
2023-02-04T11:52:20.516Z,8.93
2023-02-04T12:00:28.081Z,7.75
2023-02-04T12:08:40.473Z,8.20
2023-02-04T12:16:51.610Z,8.38
2023-02-04T12:25:00.242Z,6.75
2023-02-04T12:33:06.358Z,10.73
2023-02-04T12:41:14.411Z,10.55
2023-02-04T12:49:20.066Z,9.18
2023-02-04T12:57:28.107Z,10.23
2023-02-04T13:05:36.113Z,9.23
2023-02-04T13:13:44.426Z,10.07
2023-02-04T13:21:50.063Z,11.00
2023-02-04T13:29:58.053Z,11.75
2023-02-04T13:38:03.774Z,15.90
2023-02-04T13:46:12.190Z,16.40
2023-02-04T13:54:17.854Z,17.80
2023-02-04T14:02:25.802Z,20.95
2023-02-04T14:10:31.780Z,22.50
2023-02-04T14:18:40.232Z,23.45
2023-02-04T14:26:45.615Z,22.98
2023-02-04T14:34:53.784Z,30.77
2023-02-04T14:42:59.249Z,38.97
2023-02-04T14:51:07.590Z,37.95
2023-02-04T14:59:13.121Z,40.78
2023-02-04T15:07:25.703Z,31.85
2023-02-04T15:15:33.616Z,18.38
2023-02-04T15:23:39.127Z,16.70
2023-02-04T15:31:50.381Z,16.27
2023-02-04T15:39:57.058Z,15.07
2023-02-04T15:48:05.224Z,12.35
2023-02-04T15:56:11.186Z,12.68
2023-02-04T16:04:20.897Z,11.18
2023-02-04T16:12:26.407Z,11.95
2023-02-04T16:20:34.504Z,11.02
2023-02-04T16:28:40.321Z,13.23
2023-02-04T16:36:48.630Z,13.85
2023-02-04T16:44:54.070Z,8.52
2023-02-04T16:53:02.152Z,10.43
2023-02-04T17:01:08.058Z,7.97
2023-02-04T17:09:16.160Z,9.18
2023-02-04T17:17:21.473Z,8.07
2023-02-04T17:25:29.743Z,7.57
2023-02-04T17:33:38.016Z,9.68
2023-02-04T17:41:47.059Z,6.43
2023-02-04T17:49:52.410Z,6.90
2023-02-04T17:58:03.057Z,8.00
2023-02-04T18:06:23.622Z,6.57
2023-02-04T18:14:31.737Z,7.03
2023-02-04T18:22:37.121Z,7.63
2023-02-04T18:30:45.590Z,6.65
2023-02-04T18:38:51.056Z,6.30
2023-02-04T18:46:59.342Z,9.63
2023-02-04T18:55:04.756Z,6.32
2023-02-04T19:03:26.542Z,5.80
2023-02-04T19:11:38.151Z,4.60
2023-02-04T19:19:52.992Z,8.23
2023-02-04T19:28:00.773Z,5.65
2023-02-04T19:36:34.201Z,6.10
2023-02-04T19:44:47.542Z,5.78
2023-02-04T19:53:03.176Z,6.38
2023-02-04T20:01:12.404Z,9.77
2023-02-04T20:09:23.557Z,8.40
2023-02-04T20:17:42.935Z,7.22
2023-02-04T20:25:51.945Z,5.85
2023-02-04T20:33:59.581Z,11.95
2023-02-04T20:42:28.080Z,8.18
2023-02-04T20:51:08.677Z,6.97
2023-02-04T20:59:51.247Z,9.23
2023-02-04T21:07:59.701Z,14.13
2023-02-04T21:16:08.806Z,7.53
2023-02-04T21:24:14.216Z,7.00
2023-02-04T21:32:25.893Z,7.25
2023-02-04T21:40:31.626Z,8.27
2023-02-04T21:48:39.951Z,8.13
2023-02-04T21:56:46.248Z,13.65
2023-02-04T22:04:54.299Z,7.03
2023-02-04T22:13:00.589Z,8.63
2023-02-04T22:21:09.067Z,7.47
2023-02-04T22:29:15.174Z,6.38
2023-02-04T22:37:23.324Z,4.35
2023-02-04T22:45:28.670Z,7.18
2023-02-04T22:53:36.731Z,4.15
2023-02-04T23:01:42.335Z,5.32
2023-02-04T23:09:50.336Z,5.07
2023-02-04T23:17:57.613Z,4.47
2023-02-04T23:26:05.702Z,5.25
2023-02-04T23:34:11.101Z,3.45
2023-02-04T23:42:19.293Z,4.00
2023-02-04T23:50:24.910Z,4.63
2023-02-04T23:58:32.902Z,4.30
